sensor_id;sensor_type;location;lat;lon;timestamp;P1;durP1;ratioP1;P2;durP2;ratioP2
75320;SDS011;68337;52.196;5.660;2023-07-20T00:01:58;5.65;;;5.00;;
75320;SDS011;68337;52.196;5.660;2023-07-20T00:04:24;7.15;;;4.20;;
75320;SDS011;68337;52.196;5.660;2023-07-20T00:06:50;6.13;;;4.07;;
75320;SDS011;68337;52.196;5.660;2023-07-20T00:09:15;6.15;;;3.83;;
75320;SDS011;68337;52.196;5.660;2023-07-20T00:11:47;4.65;;;4.25;;
75320;SDS011;68337;52.196;5.660;2023-07-20T00:14:15;5.95;;;4.68;;
75320;SDS011;68337;52.196;5.660;2023-07-20T00:16:41;4.10;;;3.80;;
75320;SDS011;68337;52.196;5.660;2023-07-20T00:19:07;3.97;;;3.67;;
75320;SDS011;68337;52.196;5.660;2023-07-20T00:21:35;6.53;;;4.18;;
75320;SDS011;68337;52.196;5.660;2023-07-20T00:24:02;5.28;;;3.83;;
75320;SDS011;68337;52.196;5.660;2023-07-20T00:26:28;6.68;;;3.95;;
75320;SDS011;68337;52.196;5.660;2023-07-20T00:28:54;4.97;;;3.80;;
75320;SDS011;68337;52.196;5.660;2023-07-20T00:31:20;4.18;;;3.67;;
75320;SDS011;68337;52.196;5.660;2023-07-20T00:33:45;3.65;;;3.35;;
75320;SDS011;68337;52.196;5.660;2023-07-20T00:36:11;3.60;;;3.30;;
75320;SDS011;68337;52.196;5.660;2023-07-20T00:38:38;3.22;;;2.90;;
75320;SDS011;68337;52.196;5.660;2023-07-20T00:41:05;3.92;;;3.17;;
75320;SDS011;68337;52.196;5.660;2023-07-20T00:43:31;3.83;;;2.67;;
75320;SDS011;68337;52.196;5.660;2023-07-20T00:45:57;2.67;;;2.47;;
75320;SDS011;68337;52.196;5.660;2023-07-20T00:48:23;3.20;;;2.53;;
75320;SDS011;68337;52.196;5.660;2023-07-20T00:50:49;2.28;;;2.15;;
75320;SDS011;68337;52.196;5.660;2023-07-20T00:53:15;2.35;;;2.15;;
75320;SDS011;68337;52.196;5.660;2023-07-20T00:55:41;2.40;;;2.20;;
75320;SDS011;68337;52.196;5.660;2023-07-20T00:58:07;2.00;;;1.88;;
75320;SDS011;68337;52.196;5.660;2023-07-20T01:00:34;2.22;;;2.03;;
75320;SDS011;68337;52.196;5.660;2023-07-20T01:02:59;1.83;;;1.73;;
75320;SDS011;68337;52.196;5.660;2023-07-20T01:05:27;2.83;;;1.90;;
75320;SDS011;68337;52.196;5.660;2023-07-20T01:08:47;1.63;;;1.52;;
75320;SDS011;68337;52.196;5.660;2023-07-20T01:11:06;1.52;;;1.42;;
75320;SDS011;68337;52.196;5.660;2023-07-20T01:13:40;1.23;;;1.13;;
75320;SDS011;68337;52.196;5.660;2023-07-20T01:16:07;2.35;;;1.27;;
75320;SDS011;68337;52.196;5.660;2023-07-20T01:18:33;1.80;;;1.70;;
75320;SDS011;68337;52.196;5.660;2023-07-20T01:20:59;2.45;;;1.40;;
75320;SDS011;68337;52.196;5.660;2023-07-20T01:26:45;1.60;;;1.55;;
75320;SDS011;68337;52.196;5.660;2023-07-20T01:29:27;1.58;;;1.33;;
75320;SDS011;68337;52.196;5.660;2023-07-20T01:32:01;2.28;;;1.40;;
75320;SDS011;68337;52.196;5.660;2023-07-20T01:34:29;2.10;;;1.33;;
75320;SDS011;68337;52.196;5.660;2023-07-20T01:36:55;1.30;;;1.25;;
75320;SDS011;68337;52.196;5.660;2023-07-20T01:39:22;7.18;;;1.58;;
75320;SDS011;68337;52.196;5.660;2023-07-20T01:41:49;1.83;;;1.70;;
75320;SDS011;68337;52.196;5.660;2023-07-20T01:44:15;1.38;;;1.13;;
75320;SDS011;68337;52.196;5.660;2023-07-20T01:46:41;2.90;;;1.40;;
75320;SDS011;68337;52.196;5.660;2023-07-20T01:49:07;1.58;;;1.17;;
75320;SDS011;68337;52.196;5.660;2023-07-20T01:51:33;1.75;;;1.58;;
75320;SDS011;68337;52.196;5.660;2023-07-20T01:53:58;3.13;;;1.10;;
75320;SDS011;68337;52.196;5.660;2023-07-20T01:56:25;1.50;;;1.40;;
75320;SDS011;68337;52.196;5.660;2023-07-20T01:58:53;1.42;;;1.33;;
75320;SDS011;68337;52.196;5.660;2023-07-20T02:01:19;0.82;;;0.80;;
75320;SDS011;68337;52.196;5.660;2023-07-20T02:03:45;2.50;;;1.58;;
75320;SDS011;68337;52.196;5.660;2023-07-20T02:06:11;1.45;;;1.35;;
75320;SDS011;68337;52.196;5.660;2023-07-20T02:08:36;1.50;;;1.40;;
75320;SDS011;68337;52.196;5.660;2023-07-20T02:11:02;1.33;;;1.20;;
75320;SDS011;68337;52.196;5.660;2023-07-20T02:13:29;2.80;;;1.35;;
75320;SDS011;68337;52.196;5.660;2023-07-20T02:15:55;1.75;;;1.60;;
75320;SDS011;68337;52.196;5.660;2023-07-20T02:18:21;1.55;;;1.45;;
75320;SDS011;68337;52.196;5.660;2023-07-20T02:20:49;2.25;;;1.65;;
75320;SDS011;68337;52.196;5.660;2023-07-20T02:23:19;0.90;;;0.90;;
75320;SDS011;68337;52.196;5.660;2023-07-20T02:25:44;1.45;;;1.35;;
75320;SDS011;68337;52.196;5.660;2023-07-20T02:28:12;2.55;;;1.17;;
75320;SDS011;68337;52.196;5.660;2023-07-20T02:30:39;2.40;;;1.13;;
75320;SDS011;68337;52.196;5.660;2023-07-20T02:33:05;1.40;;;1.30;;
75320;SDS011;68337;52.196;5.660;2023-07-20T02:35:31;1.40;;;1.35;;
75320;SDS011;68337;52.196;5.660;2023-07-20T02:37:57;0.95;;;0.95;;
75320;SDS011;68337;52.196;5.660;2023-07-20T02:40:23;1.13;;;1.02;;
75320;SDS011;68337;52.196;5.660;2023-07-20T02:42:49;1.42;;;1.30;;
75320;SDS011;68337;52.196;5.660;2023-07-20T02:45:15;2.45;;;1.48;;
75320;SDS011;68337;52.196;5.660;2023-07-20T02:47:41;2.08;;;1.30;;
75320;SDS011;68337;52.196;5.660;2023-07-20T02:50:07;1.48;;;1.38;;
75320;SDS011;68337;52.196;5.660;2023-07-20T02:52:33;2.03;;;1.20;;
75320;SDS011;68337;52.196;5.660;2023-07-20T02:54:59;1.15;;;1.13;;
75320;SDS011;68337;52.196;5.660;2023-07-20T02:57:25;1.85;;;1.30;;
75320;SDS011;68337;52.196;5.660;2023-07-20T02:59:50;1.42;;;1.15;;
75320;SDS011;68337;52.196;5.660;2023-07-20T03:02:16;1.38;;;1.20;;
75320;SDS011;68337;52.196;5.660;2023-07-20T03:04:42;1.10;;;1.10;;
75320;SDS011;68337;52.196;5.660;2023-07-20T03:07:07;1.25;;;1.25;;
75320;SDS011;68337;52.196;5.660;2023-07-20T03:09:33;1.50;;;1.40;;
75320;SDS011;68337;52.196;5.660;2023-07-20T03:11:59;2.17;;;1.23;;
75320;SDS011;68337;52.196;5.660;2023-07-20T03:14:26;1.70;;;1.60;;
75320;SDS011;68337;52.196;5.660;2023-07-20T03:16:51;1.60;;;1.50;;
75320;SDS011;68337;52.196;5.660;2023-07-20T03:19:17;1.33;;;1.23;;
75320;SDS011;68337;52.196;5.660;2023-07-20T03:21:43;1.30;;;1.20;;
75320;SDS011;68337;52.196;5.660;2023-07-20T03:24:09;1.48;;;1.40;;
75320;SDS011;68337;52.196;5.660;2023-07-20T03:26:35;1.67;;;1.58;;
75320;SDS011;68337;52.196;5.660;2023-07-20T03:29:01;1.13;;;1.13;;
75320;SDS011;68337;52.196;5.660;2023-07-20T03:31:27;1.08;;;1.08;;
75320;SDS011;68337;52.196;5.660;2023-07-20T03:33:53;1.20;;;1.15;;
75320;SDS011;68337;52.196;5.660;2023-07-20T03:36:19;1.65;;;1.55;;
75320;SDS011;68337;52.196;5.660;2023-07-20T03:38:45;0.98;;;0.98;;
75320;SDS011;68337;52.196;5.660;2023-07-20T03:41:11;2.50;;;1.40;;
75320;SDS011;68337;52.196;5.660;2023-07-20T03:43:37;1.75;;;1.65;;
75320;SDS011;68337;52.196;5.660;2023-07-20T03:46:03;2.15;;;1.60;;
75320;SDS011;68337;52.196;5.660;2023-07-20T03:48:32;1.30;;;1.20;;
75320;SDS011;68337;52.196;5.660;2023-07-20T03:50:58;1.27;;;1.27;;
75320;SDS011;68337;52.196;5.660;2023-07-20T03:53:25;1.20;;;1.20;;
75320;SDS011;68337;52.196;5.660;2023-07-20T03:55:51;3.60;;;1.92;;
75320;SDS011;68337;52.196;5.660;2023-07-20T03:58:18;1.95;;;1.45;;
75320;SDS011;68337;52.196;5.660;2023-07-20T04:00:45;1.85;;;1.75;;
75320;SDS011;68337;52.196;5.660;2023-07-20T04:03:12;1.35;;;1.25;;
75320;SDS011;68337;52.196;5.660;2023-07-20T04:05:38;1.20;;;1.10;;
75320;SDS011;68337;52.196;5.660;2023-07-20T04:08:04;2.00;;;1.30;;
75320;SDS011;68337;52.196;5.660;2023-07-20T04:10:30;1.45;;;1.15;;
75320;SDS011;68337;52.196;5.660;2023-07-20T04:12:55;1.88;;;1.40;;
75320;SDS011;68337;52.196;5.660;2023-07-20T04:15:21;2.22;;;1.73;;
75320;SDS011;68337;52.196;5.660;2023-07-20T04:17:47;1.60;;;1.50;;
75320;SDS011;68337;52.196;5.660;2023-07-20T04:20:12;1.50;;;1.40;;
75320;SDS011;68337;52.196;5.660;2023-07-20T04:22:38;2.45;;;1.30;;
75320;SDS011;68337;52.196;5.660;2023-07-20T04:25:04;1.70;;;1.60;;
75320;SDS011;68337;52.196;5.660;2023-07-20T04:27:30;1.50;;;1.40;;
75320;SDS011;68337;52.196;5.660;2023-07-20T04:29:58;3.03;;;1.42;;
75320;SDS011;68337;52.196;5.660;2023-07-20T04:32:27;3.47;;;1.60;;
75320;SDS011;68337;52.196;5.660;2023-07-20T04:34:52;1.42;;;1.33;;
75320;SDS011;68337;52.196;5.660;2023-07-20T04:37:18;1.70;;;1.40;;
75320;SDS011;68337;52.196;5.660;2023-07-20T04:39:44;1.63;;;1.52;;
75320;SDS011;68337;52.196;5.660;2023-07-20T04:42:10;1.48;;;1.38;;
75320;SDS011;68337;52.196;5.660;2023-07-20T04:44:35;1.75;;;1.65;;
75320;SDS011;68337;52.196;5.660;2023-07-20T04:47:01;1.70;;;1.60;;
75320;SDS011;68337;52.196;5.660;2023-07-20T04:49:28;1.88;;;1.77;;
75320;SDS011;68337;52.196;5.660;2023-07-20T04:51:53;1.70;;;1.60;;
75320;SDS011;68337;52.196;5.660;2023-07-20T04:54:19;1.95;;;1.55;;
75320;SDS011;68337;52.196;5.660;2023-07-20T04:56:45;1.95;;;1.58;;
75320;SDS011;68337;52.196;5.660;2023-07-20T04:59:11;1.90;;;1.80;;
75320;SDS011;68337;52.196;5.660;2023-07-20T05:01:37;1.92;;;1.73;;
75320;SDS011;68337;52.196;5.660;2023-07-20T05:04:03;2.80;;;2.38;;
75320;SDS011;68337;52.196;5.660;2023-07-20T05:06:29;2.88;;;2.28;;
75320;SDS011;68337;52.196;5.660;2023-07-20T05:08:54;2.42;;;2.22;;
75320;SDS011;68337;52.196;5.660;2023-07-20T05:11:20;4.50;;;2.60;;
75320;SDS011;68337;52.196;5.660;2023-07-20T05:13:46;3.53;;;3.22;;
75320;SDS011;68337;52.196;5.660;2023-07-20T05:16:12;4.05;;;3.53;;
75320;SDS011;68337;52.196;5.660;2023-07-20T05:18:37;4.43;;;4.03;;
75320;SDS011;68337;52.196;5.660;2023-07-20T05:21:05;4.60;;;4.22;;
75320;SDS011;68337;52.196;5.660;2023-07-20T05:23:30;4.78;;;4.28;;
75320;SDS011;68337;52.196;5.660;2023-07-20T05:25:57;4.85;;;4.43;;
75320;SDS011;68337;52.196;5.660;2023-07-20T05:28:24;4.78;;;4.47;;
75320;SDS011;68337;52.196;5.660;2023-07-20T05:30:51;4.82;;;4.53;;
75320;SDS011;68337;52.196;5.660;2023-07-20T05:33:17;4.43;;;4.03;;
75320;SDS011;68337;52.196;5.660;2023-07-20T05:35:44;4.07;;;3.78;;
75320;SDS011;68337;52.196;5.660;2023-07-20T05:38:10;3.35;;;3.15;;
75320;SDS011;68337;52.196;5.660;2023-07-20T05:40:37;4.05;;;3.78;;
75320;SDS011;68337;52.196;5.660;2023-07-20T05:43:03;3.45;;;3.15;;
75320;SDS011;68337;52.196;5.660;2023-07-20T05:45:29;2.30;;;2.20;;
75320;SDS011;68337;52.196;5.660;2023-07-20T05:47:55;4.40;;;1.80;;
75320;SDS011;68337;52.196;5.660;2023-07-20T05:50:21;1.90;;;1.58;;
75320;SDS011;68337;52.196;5.660;2023-07-20T05:52:47;1.70;;;1.02;;
75320;SDS011;68337;52.196;5.660;2023-07-20T05:55:13;1.30;;;1.10;;
75320;SDS011;68337;52.196;5.660;2023-07-20T05:57:39;1.48;;;1.40;;
75320;SDS011;68337;52.196;5.660;2023-07-20T06:00:07;2.47;;;1.10;;
75320;SDS011;68337;52.196;5.660;2023-07-20T06:02:34;2.10;;;1.50;;
75320;SDS011;68337;52.196;5.660;2023-07-20T06:04:59;2.05;;;0.98;;
75320;SDS011;68337;52.196;5.660;2023-07-20T06:07:25;1.60;;;0.82;;
75320;SDS011;68337;52.196;5.660;2023-07-20T06:09:51;2.67;;;0.95;;
75320;SDS011;68337;52.196;5.660;2023-07-20T06:12:17;3.85;;;1.42;;
75320;SDS011;68337;52.196;5.660;2023-07-20T06:14:43;2.60;;;1.50;;
75320;SDS011;68337;52.196;5.660;2023-07-20T06:17:09;2.08;;;0.88;;
75320;SDS011;68337;52.196;5.660;2023-07-20T06:19:35;1.63;;;1.00;;
75320;SDS011;68337;52.196;5.660;2023-07-20T06:22:00;3.60;;;0.80;;
75320;SDS011;68337;52.196;5.660;2023-07-20T06:24:26;1.02;;;0.77;;
75320;SDS011;68337;52.196;5.660;2023-07-20T06:26:52;0.57;;;0.57;;
75320;SDS011;68337;52.196;5.660;2023-07-20T06:29:18;1.65;;;0.70;;
75320;SDS011;68337;52.196;5.660;2023-07-20T06:31:44;2.13;;;0.90;;
75320;SDS011;68337;52.196;5.660;2023-07-20T06:34:10;1.15;;;0.90;;
75320;SDS011;68337;52.196;5.660;2023-07-20T06:36:36;1.50;;;1.02;;
75320;SDS011;68337;52.196;5.660;2023-07-20T06:39:01;1.65;;;1.10;;
75320;SDS011;68337;52.196;5.660;2023-07-20T06:41:27;1.83;;;0.93;;
75320;SDS011;68337;52.196;5.660;2023-07-20T06:43:53;0.98;;;0.88;;
75320;SDS011;68337;52.196;5.660;2023-07-20T06:46:23;1.38;;;0.73;;
75320;SDS011;68337;52.196;5.660;2023-07-20T06:48:50;0.60;;;0.60;;
75320;SDS011;68337;52.196;5.660;2023-07-20T06:51:16;4.03;;;0.90;;
75320;SDS011;68337;52.196;5.660;2023-07-20T06:53:43;1.58;;;0.57;;
75320;SDS011;68337;52.196;5.660;2023-07-20T06:56:09;1.65;;;0.70;;
75320;SDS011;68337;52.196;5.660;2023-07-20T06:58:36;0.90;;;0.70;;
75320;SDS011;68337;52.196;5.660;2023-07-20T07:01:07;1.65;;;0.75;;
75320;SDS011;68337;52.196;5.660;2023-07-20T07:03:33;0.60;;;0.57;;
75320;SDS011;68337;52.196;5.660;2023-07-20T07:06:00;0.60;;;0.57;;
75320;SDS011;68337;52.196;5.660;2023-07-20T07:08:26;2.17;;;0.70;;
75320;SDS011;68337;52.196;5.660;2023-07-20T07:10:52;1.13;;;0.47;;
75320;SDS011;68337;52.196;5.660;2023-07-20T07:13:18;1.20;;;0.50;;
75320;SDS011;68337;52.196;5.660;2023-07-20T07:15:44;0.70;;;0.70;;
75320;SDS011;68337;52.196;5.660;2023-07-20T07:18:11;0.98;;;0.55;;
75320;SDS011;68337;52.196;5.660;2023-07-20T07:20:37;1.08;;;0.63;;
75320;SDS011;68337;52.196;5.660;2023-07-20T07:23:02;1.77;;;0.52;;
75320;SDS011;68337;52.196;5.660;2023-07-20T07:25:28;1.67;;;0.95;;
75320;SDS011;68337;52.196;5.660;2023-07-20T07:27:56;1.20;;;0.63;;
75320;SDS011;68337;52.196;5.660;2023-07-20T07:30:22;2.28;;;0.77;;
75320;SDS011;68337;52.196;5.660;2023-07-20T07:32:47;0.90;;;0.68;;
75320;SDS011;68337;52.196;5.660;2023-07-20T07:35:14;1.73;;;0.63;;
75320;SDS011;68337;52.196;5.660;2023-07-20T07:37:39;1.83;;;0.98;;
75320;SDS011;68337;52.196;5.660;2023-07-20T07:40:06;1.50;;;0.95;;
75320;SDS011;68337;52.196;5.660;2023-07-20T07:42:33;0.70;;;0.70;;
75320;SDS011;68337;52.196;5.660;2023-07-20T07:44:59;0.93;;;0.90;;
75320;SDS011;68337;52.196;5.660;2023-07-20T07:47:25;0.93;;;0.60;;
75320;SDS011;68337;52.196;5.660;2023-07-20T07:49:50;1.88;;;0.65;;
75320;SDS011;68337;52.196;5.660;2023-07-20T07:52:16;1.40;;;0.82;;
75320;SDS011;68337;52.196;5.660;2023-07-20T07:54:42;0.80;;;0.60;;
75320;SDS011;68337;52.196;5.660;2023-07-20T07:57:08;2.05;;;0.70;;
75320;SDS011;68337;52.196;5.660;2023-07-20T07:59:34;0.63;;;0.50;;
75320;SDS011;68337;52.196;5.660;2023-07-20T08:02:03;2.97;;;0.65;;
75320;SDS011;68337;52.196;5.660;2023-07-20T08:04:29;1.10;;;1.10;;
75320;SDS011;68337;52.196;5.660;2023-07-20T08:06:55;1.85;;;0.90;;
75320;SDS011;68337;52.196;5.660;2023-07-20T08:09:21;0.88;;;0.70;;
75320;SDS011;68337;52.196;5.660;2023-07-20T08:11:47;0.70;;;0.70;;
75320;SDS011;68337;52.196;5.660;2023-07-20T08:14:14;1.65;;;0.73;;
75320;SDS011;68337;52.196;5.660;2023-07-20T08:16:40;1.85;;;0.57;;
75320;SDS011;68337;52.196;5.660;2023-07-20T08:19:06;1.30;;;0.70;;
75320;SDS011;68337;52.196;5.660;2023-07-20T08:21:32;1.25;;;0.60;;
75320;SDS011;68337;52.196;5.660;2023-07-20T08:23:58;0.50;;;0.50;;
75320;SDS011;68337;52.196;5.660;2023-07-20T08:26:23;2.15;;;0.50;;
75320;SDS011;68337;52.196;5.660;2023-07-20T08:28:49;0.98;;;0.50;;
75320;SDS011;68337;52.196;5.660;2023-07-20T08:31:15;3.05;;;0.80;;
75320;SDS011;68337;52.196;5.660;2023-07-20T08:33:40;2.47;;;0.70;;
75320;SDS011;68337;52.196;5.660;2023-07-20T08:36:06;1.45;;;0.80;;
75320;SDS011;68337;52.196;5.660;2023-07-20T08:38:32;0.88;;;0.57;;
75320;SDS011;68337;52.196;5.660;2023-07-20T08:40:58;1.50;;;0.70;;
75320;SDS011;68337;52.196;5.660;2023-07-20T08:43:25;0.55;;;0.47;;
75320;SDS011;68337;52.196;5.660;2023-07-20T08:45:54;0.95;;;0.50;;
75320;SDS011;68337;52.196;5.660;2023-07-20T08:48:22;1.17;;;0.50;;
75320;SDS011;68337;52.196;5.660;2023-07-20T08:50:49;1.05;;;0.63;;
75320;SDS011;68337;52.196;5.660;2023-07-20T08:53:17;0.75;;;0.52;;
75320;SDS011;68337;52.196;5.660;2023-07-20T08:55:44;3.55;;;0.60;;
75320;SDS011;68337;52.196;5.660;2023-07-20T08:58:13;1.52;;;0.70;;
75320;SDS011;68337;52.196;5.660;2023-07-20T09:00:40;0.85;;;0.32;;
75320;SDS011;68337;52.196;5.660;2023-07-20T09:03:07;0.47;;;0.47;;
75320;SDS011;68337;52.196;5.660;2023-07-20T09:05:33;0.70;;;0.50;;
75320;SDS011;68337;52.196;5.660;2023-07-20T09:08:00;2.03;;;0.60;;
75320;SDS011;68337;52.196;5.660;2023-07-20T09:10:29;0.75;;;0.40;;
75320;SDS011;68337;52.196;5.660;2023-07-20T09:12:55;1.17;;;0.30;;
75320;SDS011;68337;52.196;5.660;2023-07-20T09:15:21;1.65;;;0.45;;
75320;SDS011;68337;52.196;5.660;2023-07-20T09:17:48;0.30;;;0.30;;
75320;SDS011;68337;52.196;5.660;2023-07-20T09:20:15;0.57;;;0.30;;
75320;SDS011;68337;52.196;5.660;2023-07-20T09:22:42;0.30;;;0.30;;
75320;SDS011;68337;52.196;5.660;2023-07-20T09:25:12;0.60;;;0.43;;
75320;SDS011;68337;52.196;5.660;2023-07-20T09:27:40;0.80;;;0.45;;
75320;SDS011;68337;52.196;5.660;2023-07-20T09:30:08;0.63;;;0.40;;
75320;SDS011;68337;52.196;5.660;2023-07-20T09:32:44;1.88;;;0.30;;
75320;SDS011;68337;52.196;5.660;2023-07-20T09:35:13;0.88;;;0.43;;
75320;SDS011;68337;52.196;5.660;2023-07-20T09:37:42;1.95;;;0.50;;
75320;SDS011;68337;52.196;5.660;2023-07-20T09:40:23;0.73;;;0.28;;
75320;SDS011;68337;52.196;5.660;2023-07-20T09:42:53;0.65;;;0.38;;
75320;SDS011;68337;52.196;5.660;2023-07-20T09:45:29;1.20;;;0.40;;
75320;SDS011;68337;52.196;5.660;2023-07-20T09:48:07;1.17;;;0.32;;
75320;SDS011;68337;52.196;5.660;2023-07-20T09:50:39;2.22;;;0.40;;
75320;SDS011;68337;52.196;5.660;2023-07-20T09:53:13;0.30;;;0.30;;
75320;SDS011;68337;52.196;5.660;2023-07-20T09:55:40;0.52;;;0.30;;
75320;SDS011;68337;52.196;5.660;2023-07-20T09:58:10;0.40;;;0.40;;
75320;SDS011;68337;52.196;5.660;2023-07-20T10:00:37;0.95;;;0.50;;
75320;SDS011;68337;52.196;5.660;2023-07-20T10:03:05;0.40;;;0.40;;
75320;SDS011;68337;52.196;5.660;2023-07-20T10:05:32;0.70;;;0.40;;
75320;SDS011;68337;52.196;5.660;2023-07-20T10:08:01;1.88;;;0.45;;
75320;SDS011;68337;52.196;5.660;2023-07-20T10:10:29;0.80;;;0.35;;
75320;SDS011;68337;52.196;5.660;2023-07-20T10:12:59;1.20;;;0.40;;
75320;SDS011;68337;52.196;5.660;2023-07-20T10:15:35;0.55;;;0.40;;
75320;SDS011;68337;52.196;5.660;2023-07-20T10:18:18;1.52;;;0.60;;
75320;SDS011;68337;52.196;5.660;2023-07-20T10:20:53;1.90;;;0.45;;
75320;SDS011;68337;52.196;5.660;2023-07-20T10:23:22;0.90;;;0.77;;
75320;SDS011;68337;52.196;5.660;2023-07-20T10:25:51;1.63;;;0.50;;
75320;SDS011;68337;52.196;5.660;2023-07-20T10:28:18;0.30;;;0.30;;
75320;SDS011;68337;52.196;5.660;2023-07-20T10:30:45;1.13;;;0.40;;
75320;SDS011;68337;52.196;5.660;2023-07-20T10:33:12;1.17;;;0.38;;
75320;SDS011;68337;52.196;5.660;2023-07-20T10:35:51;0.57;;;0.30;;
75320;SDS011;68337;52.196;5.660;2023-07-20T10:41:15;1.13;;;0.30;;
75320;SDS011;68337;52.196;5.660;2023-07-20T10:43:43;2.42;;;0.50;;
75320;SDS011;68337;52.196;5.660;2023-07-20T10:46:10;0.65;;;0.30;;
75320;SDS011;68337;52.196;5.660;2023-07-20T10:51:24;1.55;;;0.40;;
75320;SDS011;68337;52.196;5.660;2023-07-20T10:53:50;0.93;;;0.30;;
75320;SDS011;68337;52.196;5.660;2023-07-20T10:56:22;0.85;;;0.38;;
75320;SDS011;68337;52.196;5.660;2023-07-20T10:58:54;1.33;;;0.40;;
75320;SDS011;68337;52.196;5.660;2023-07-20T11:01:27;1.13;;;0.40;;
75320;SDS011;68337;52.196;5.660;2023-07-20T11:03:56;1.95;;;0.43;;
75320;SDS011;68337;52.196;5.660;2023-07-20T11:08:49;0.68;;;0.40;;
75320;SDS011;68337;52.196;5.660;2023-07-20T11:11:41;0.68;;;0.40;;
75320;SDS011;68337;52.196;5.660;2023-07-20T11:14:25;0.65;;;0.50;;
75320;SDS011;68337;52.196;5.660;2023-07-20T11:16:52;0.70;;;0.30;;
75320;SDS011;68337;52.196;5.660;2023-07-20T11:19:19;0.60;;;0.30;;
75320;SDS011;68337;52.196;5.660;2023-07-20T11:21:58;0.57;;;0.50;;
75320;SDS011;68337;52.196;5.660;2023-07-20T11:24:24;0.90;;;0.40;;
75320;SDS011;68337;52.196;5.660;2023-07-20T11:26:51;1.52;;;0.30;;
75320;SDS011;68337;52.196;5.660;2023-07-20T11:29:19;1.30;;;0.30;;
75320;SDS011;68337;52.196;5.660;2023-07-20T11:31:46;0.30;;;0.30;;
75320;SDS011;68337;52.196;5.660;2023-07-20T11:34:16;1.35;;;0.30;;
75320;SDS011;68337;52.196;5.660;2023-07-20T11:36:46;1.00;;;0.30;;
75320;SDS011;68337;52.196;5.660;2023-07-20T11:39:14;0.40;;;0.40;;
75320;SDS011;68337;52.196;5.660;2023-07-20T11:41:50;1.50;;;0.47;;
75320;SDS011;68337;52.196;5.660;2023-07-20T11:44:21;1.80;;;0.30;;
75320;SDS011;68337;52.196;5.660;2023-07-20T11:47:05;1.05;;;0.32;;
75320;SDS011;68337;52.196;5.660;2023-07-20T11:49:35;0.50;;;0.40;;
75320;SDS011;68337;52.196;5.660;2023-07-20T11:52:03;0.80;;;0.30;;
75320;SDS011;68337;52.196;5.660;2023-07-20T11:54:33;0.30;;;0.30;;
75320;SDS011;68337;52.196;5.660;2023-07-20T11:57:03;0.50;;;0.30;;
75320;SDS011;68337;52.196;5.660;2023-07-20T11:59:30;0.63;;;0.30;;
75320;SDS011;68337;52.196;5.660;2023-07-20T12:01:56;1.13;;;0.40;;
75320;SDS011;68337;52.196;5.660;2023-07-20T12:04:23;0.47;;;0.40;;
75320;SDS011;68337;52.196;5.660;2023-07-20T12:06:49;1.30;;;0.45;;
75320;SDS011;68337;52.196;5.660;2023-07-20T12:09:18;1.95;;;0.40;;
75320;SDS011;68337;52.196;5.660;2023-07-20T12:11:44;0.30;;;0.30;;
75320;SDS011;68337;52.196;5.660;2023-07-20T12:14:10;0.88;;;0.52;;
75320;SDS011;68337;52.196;5.660;2023-07-20T12:16:36;1.55;;;1.45;;
75320;SDS011;68337;52.196;5.660;2023-07-20T12:19:07;0.75;;;0.45;;
75320;SDS011;68337;52.196;5.660;2023-07-20T12:21:35;0.68;;;0.50;;
75320;SDS011;68337;52.196;5.660;2023-07-20T12:24:02;0.45;;;0.32;;
75320;SDS011;68337;52.196;5.660;2023-07-20T12:26:29;1.80;;;0.43;;
75320;SDS011;68337;52.196;5.660;2023-07-20T12:28:56;1.95;;;0.63;;
75320;SDS011;68337;52.196;5.660;2023-07-20T12:31:22;8.18;;;1.15;;
75320;SDS011;68337;52.196;5.660;2023-07-20T12:33:49;2.17;;;0.38;;
75320;SDS011;68337;52.196;5.660;2023-07-20T12:36:16;0.40;;;0.20;;
75320;SDS011;68337;52.196;5.660;2023-07-20T12:38:42;0.77;;;0.40;;
75320;SDS011;68337;52.196;5.660;2023-07-20T12:41:09;0.40;;;0.30;;
75320;SDS011;68337;52.196;5.660;2023-07-20T12:43:37;0.65;;;0.40;;
75320;SDS011;68337;52.196;5.660;2023-07-20T12:46:03;0.68;;;0.40;;
75320;SDS011;68337;52.196;5.660;2023-07-20T12:48:29;0.30;;;0.30;;
75320;SDS011;68337;52.196;5.660;2023-07-20T12:50:55;1.38;;;0.52;;
75320;SDS011;68337;52.196;5.660;2023-07-20T12:53:21;0.52;;;0.25;;
75320;SDS011;68337;52.196;5.660;2023-07-20T12:55:47;0.73;;;0.30;;
75320;SDS011;68337;52.196;5.660;2023-07-20T12:58:13;0.70;;;0.32;;
75320;SDS011;68337;52.196;5.660;2023-07-20T13:00:39;0.73;;;0.30;;
75320;SDS011;68337;52.196;5.660;2023-07-20T13:03:05;0.47;;;0.35;;
75320;SDS011;68337;52.196;5.660;2023-07-20T13:05:33;1.73;;;0.45;;
75320;SDS011;68337;52.196;5.660;2023-07-20T13:08:00;1.02;;;0.70;;
75320;SDS011;68337;52.196;5.660;2023-07-20T13:10:30;1.85;;;0.50;;
75320;SDS011;68337;52.196;5.660;2023-07-20T13:12:56;0.55;;;0.10;;
75320;SDS011;68337;52.196;5.660;2023-07-20T13:15:24;1.10;;;0.40;;
75320;SDS011;68337;52.196;5.660;2023-07-20T13:17:55;16.13;;;1.83;;
75320;SDS011;68337;52.196;5.660;2023-07-20T13:20:21;1.67;;;0.40;;
75320;SDS011;68337;52.196;5.660;2023-07-20T13:22:47;0.88;;;0.47;;
75320;SDS011;68337;52.196;5.660;2023-07-20T13:25:13;1.00;;;0.20;;
75320;SDS011;68337;52.196;5.660;2023-07-20T13:27:39;0.68;;;0.20;;
75320;SDS011;68337;52.196;5.660;2023-07-20T13:30:05;3.25;;;0.40;;
75320;SDS011;68337;52.196;5.660;2023-07-20T13:32:33;1.27;;;0.40;;
75320;SDS011;68337;52.196;5.660;2023-07-20T13:34:59;0.88;;;0.45;;
75320;SDS011;68337;52.196;5.660;2023-07-20T13:37:25;3.47;;;0.47;;
75320;SDS011;68337;52.196;5.660;2023-07-20T13:39:52;0.20;;;0.20;;
75320;SDS011;68337;52.196;5.660;2023-07-20T13:42:17;0.55;;;0.35;;
75320;SDS011;68337;52.196;5.660;2023-07-20T13:44:43;0.32;;;0.32;;
75320;SDS011;68337;52.196;5.660;2023-07-20T13:47:09;0.30;;;0.30;;
75320;SDS011;68337;52.196;5.660;2023-07-20T13:49:34;0.45;;;0.20;;
75320;SDS011;68337;52.196;5.660;2023-07-20T13:52:00;0.70;;;0.15;;
75320;SDS011;68337;52.196;5.660;2023-07-20T13:54:26;0.20;;;0.20;;
75320;SDS011;68337;52.196;5.660;2023-07-20T13:56:52;0.75;;;0.38;;
75320;SDS011;68337;52.196;5.660;2023-07-20T13:59:17;0.85;;;0.75;;
75320;SDS011;68337;52.196;5.660;2023-07-20T14:01:44;0.77;;;0.30;;
75320;SDS011;68337;52.196;5.660;2023-07-20T14:04:10;0.77;;;0.20;;
75320;SDS011;68337;52.196;5.660;2023-07-20T14:06:35;0.52;;;0.50;;
75320;SDS011;68337;52.196;5.660;2023-07-20T14:09:01;0.70;;;0.40;;
75320;SDS011;68337;52.196;5.660;2023-07-20T14:11:28;1.02;;;0.88;;
75320;SDS011;68337;52.196;5.660;2023-07-20T14:13:54;1.60;;;0.40;;
75320;SDS011;68337;52.196;5.660;2023-07-20T14:16:20;1.88;;;0.28;;
75320;SDS011;68337;52.196;5.660;2023-07-20T14:18:46;2.65;;;0.50;;
75320;SDS011;68337;52.196;5.660;2023-07-20T14:21:13;1.90;;;0.30;;
75320;SDS011;68337;52.196;5.660;2023-07-20T14:23:40;2.92;;;0.30;;
75320;SDS011;68337;52.196;5.660;2023-07-20T14:26:05;0.35;;;0.30;;
75320;SDS011;68337;52.196;5.660;2023-07-20T14:28:32;0.40;;;0.40;;
75320;SDS011;68337;52.196;5.660;2023-07-20T14:30:58;1.95;;;0.30;;
75320;SDS011;68337;52.196;5.660;2023-07-20T14:33:24;0.55;;;0.40;;
75320;SDS011;68337;52.196;5.660;2023-07-20T14:35:50;0.40;;;0.30;;
75320;SDS011;68337;52.196;5.660;2023-07-20T14:38:15;1.92;;;0.38;;
75320;SDS011;68337;52.196;5.660;2023-07-20T14:40:41;1.75;;;0.40;;
75320;SDS011;68337;52.196;5.660;2023-07-20T14:43:07;3.78;;;0.70;;
75320;SDS011;68337;52.196;5.660;2023-07-20T14:45:33;0.63;;;0.40;;
75320;SDS011;68337;52.196;5.660;2023-07-20T14:47:59;1.25;;;0.75;;
75320;SDS011;68337;52.196;5.660;2023-07-20T14:50:24;0.95;;;0.70;;
75320;SDS011;68337;52.196;5.660;2023-07-20T14:52:50;2.60;;;0.68;;
75320;SDS011;68337;52.196;5.660;2023-07-20T14:55:16;1.73;;;0.40;;
75320;SDS011;68337;52.196;5.660;2023-07-20T14:57:42;1.38;;;0.90;;
75320;SDS011;68337;52.196;5.660;2023-07-20T15:00:08;0.73;;;0.73;;